TAF Text Data
IDs:
Format:
Raw Decoded Include METAR

Data at: 0402 UTC 20 Sep 2020

KIAD 200352Z 00000KT 10SM CLR 07/04 A3038 RMK AO2 SLP286 T00670039 $

KIAD 192322Z 2000/2106 02007KT P6SM SKC
  FM200800 36004KT P6SM SKC
  FM201500 04007KT P6SM SKC
  FM210200 VRB03KT P6SM SKC